createdAt,value
2023-05-06T00:01:16.875Z,20.44
2023-05-06T00:03:43.633Z,20.43
2023-05-06T00:06:10.443Z,20.43
2023-05-06T00:08:36.954Z,20.44
2023-05-06T00:11:03.548Z,20.44
2023-05-06T00:13:30.068Z,20.44
2023-05-06T00:15:56.773Z,20.43
2023-05-06T00:18:23.720Z,20.44
2023-05-06T00:20:50.331Z,20.44
2023-05-06T00:23:16.870Z,20.43
2023-05-06T00:25:43.487Z,20.43
2023-05-06T00:28:10.253Z,20.42
2023-05-06T00:30:36.815Z,20.43
2023-05-06T00:33:03.488Z,20.44
2023-05-06T00:35:30.657Z,20.43
2023-05-06T00:38:10.950Z,20.43
2023-05-06T00:40:37.535Z,20.44
2023-05-06T00:43:04.146Z,20.41
2023-05-06T00:45:30.690Z,20.44
2023-05-06T00:47:57.508Z,20.44
2023-05-06T00:50:24.219Z,20.44
2023-05-06T00:52:50.870Z,20.44
2023-05-06T00:55:17.509Z,20.44
2023-05-06T00:57:43.995Z,20.46
2023-05-06T01:00:11.770Z,20.31
2023-05-06T01:02:46.867Z,20.46
2023-05-06T01:05:14.483Z,20.43
2023-05-06T01:07:44.802Z,20.42
2023-05-06T01:10:26.846Z,20.45
2023-05-06T01:13:08.964Z,20.46
2023-05-06T01:15:40.838Z,20.46
2023-05-06T01:18:11.673Z,20.46
2023-05-06T01:20:38.516Z,20.46
2023-05-06T01:23:14.478Z,20.44
2023-05-06T01:25:41.109Z,20.46
2023-05-06T01:28:10.479Z,20.44
2023-05-06T01:30:52.392Z,20.46
2023-05-06T01:33:52.783Z,20.45
2023-05-06T01:36:46.033Z,20.42
2023-05-06T01:39:14.005Z,20.44
2023-05-06T01:41:41.580Z,20.44
2023-05-06T01:44:08.244Z,20.46
2023-05-06T01:46:35.269Z,20.44
2023-05-06T01:49:06.514Z,20.43
2023-05-06T01:51:34.019Z,20.44
2023-05-06T01:54:01.637Z,20.40
2023-05-06T01:56:30.309Z,20.44
2023-05-06T01:58:59.408Z,20.39
2023-05-06T02:01:26.320Z,20.43
2023-05-06T02:03:53.098Z,20.43
2023-05-06T02:06:19.908Z,20.44
2023-05-06T02:08:46.479Z,20.44
2023-05-06T02:11:13.033Z,20.44
2023-05-06T02:13:39.562Z,20.44
2023-05-06T02:16:06.362Z,20.44
2023-05-06T02:18:32.919Z,20.44
2023-05-06T02:20:59.508Z,20.44
2023-05-06T02:23:26.014Z,20.45
2023-05-06T02:25:52.850Z,20.44
2023-05-06T02:28:19.345Z,20.45
2023-05-06T02:30:45.925Z,20.46
2023-05-06T02:33:12.509Z,20.46
2023-05-06T02:35:39.061Z,20.45
2023-05-06T02:38:05.545Z,20.46
2023-05-06T02:40:32.026Z,20.46
2023-05-06T02:42:58.562Z,20.46
2023-05-06T02:45:25.116Z,20.45
2023-05-06T02:47:51.654Z,20.44
2023-05-06T02:50:18.281Z,20.44
2023-05-06T02:52:44.839Z,20.44
2023-05-06T02:55:11.708Z,20.45
2023-05-06T02:57:38.572Z,20.44
2023-05-06T03:00:06.448Z,20.44
2023-05-06T03:02:33.027Z,20.44
2023-05-06T03:04:59.670Z,20.44
2023-05-06T03:07:26.228Z,20.44
2023-05-06T03:09:52.738Z,20.40
2023-05-06T03:12:19.234Z,20.43
2023-05-06T03:14:45.806Z,20.32
2023-05-06T03:17:12.377Z,20.45
2023-05-06T03:19:38.894Z,20.43
2023-05-06T03:22:05.510Z,20.43
2023-05-06T03:24:32.072Z,20.43
2023-05-06T03:26:58.607Z,20.44
2023-05-06T03:29:25.253Z,20.31
2023-05-06T03:31:51.810Z,20.44
2023-05-06T03:34:18.367Z,20.43
2023-05-06T03:36:45.650Z,20.43
2023-05-06T03:39:12.254Z,20.44
2023-05-06T03:41:38.853Z,20.44
2023-05-06T03:44:05.484Z,20.42
2023-05-06T03:46:32.771Z,20.44
2023-05-06T03:49:00.659Z,20.44
2023-05-06T03:51:27.573Z,20.43
2023-05-06T03:53:54.955Z,20.43
2023-05-06T03:56:22.235Z,20.44
2023-05-06T03:58:48.930Z,20.43
2023-05-06T04:01:17.207Z,20.43
2023-05-06T04:03:44.385Z,20.43
2023-05-06T04:06:10.981Z,20.41
2023-05-06T04:08:37.505Z,20.43
2023-05-06T04:11:07.408Z,20.43
2023-05-06T04:13:34.452Z,20.42
2023-05-06T04:16:01.404Z,20.42
2023-05-06T04:18:27.978Z,20.42
2023-05-06T04:20:54.466Z,20.44
2023-05-06T04:23:21.578Z,20.43
2023-05-06T04:25:51.312Z,20.42
2023-05-06T04:28:17.849Z,20.43
2023-05-06T04:30:45.081Z,20.35
2023-05-06T04:33:11.768Z,20.39
2023-05-06T04:35:39.459Z,20.16
2023-05-06T04:38:06.144Z,20.20
2023-05-06T04:40:35.101Z,20.43
2023-05-06T04:43:02.942Z,20.25
2023-05-06T04:45:29.920Z,20.43
2023-05-06T04:47:56.614Z,20.17
2023-05-06T04:50:23.178Z,20.18
2023-05-06T04:52:49.769Z,20.43
2023-05-06T04:55:16.378Z,20.16
2023-05-06T04:57:42.936Z,20.30
2023-05-06T05:00:10.682Z,20.11
2023-05-06T05:02:37.738Z,20.26
2023-05-06T05:05:04.508Z,20.27
2023-05-06T05:07:31.037Z,20.45
2023-05-06T05:09:57.594Z,20.46
2023-05-06T05:12:24.110Z,20.25
2023-05-06T05:14:51.259Z,20.14
2023-05-06T05:17:17.844Z,20.38
2023-05-06T05:19:44.378Z,20.22
2023-05-06T05:22:11.198Z,20.39
2023-05-06T05:24:37.717Z,20.20
2023-05-06T05:27:04.332Z,20.25
2023-05-06T05:29:30.892Z,20.47
2023-05-06T05:31:57.426Z,20.39
2023-05-06T05:34:24.050Z,20.22
2023-05-06T05:36:50.642Z,20.31
2023-05-06T05:39:17.137Z,20.30
2023-05-06T05:41:43.693Z,20.47
2023-05-06T05:44:10.219Z,20.39
2023-05-06T05:46:36.864Z,20.46
2023-05-06T05:49:03.662Z,20.29
2023-05-06T05:51:31.011Z,20.46
2023-05-06T05:53:57.601Z,20.46
2023-05-06T05:56:24.119Z,20.16
2023-05-06T05:58:50.793Z,20.38
2023-05-06T06:01:17.675Z,20.28
2023-05-06T06:03:44.563Z,20.16
2023-05-06T06:06:11.149Z,20.20
2023-05-06T06:08:37.697Z,20.45
2023-05-06T06:11:05.810Z,20.45
2023-05-06T06:13:32.435Z,20.42
2023-05-06T06:15:59.036Z,20.44
2023-05-06T06:18:25.696Z,20.39
2023-05-06T06:20:53.491Z,20.35
2023-05-06T06:23:20.996Z,20.30
2023-05-06T06:25:48.836Z,20.17
2023-05-06T06:28:15.402Z,20.37
2023-05-06T06:30:41.941Z,20.38
2023-05-06T06:33:08.449Z,20.16
2023-05-06T06:35:35.409Z,20.46
2023-05-06T06:38:02.875Z,20.15
2023-05-06T06:40:29.499Z,20.08
2023-05-06T06:42:56.055Z,20.41
2023-05-06T06:45:23.490Z,20.43
2023-05-06T06:47:50.123Z,20.44
2023-05-06T06:50:16.704Z,20.46
2023-05-06T06:52:43.215Z,20.37
2023-05-06T06:55:10.137Z,20.41
2023-05-06T06:57:37.654Z,20.43
2023-05-06T07:00:04.348Z,20.27
2023-05-06T07:02:31.031Z,20.39
2023-05-06T07:04:57.549Z,20.39
2023-05-06T07:07:24.072Z,20.46
2023-05-06T07:09:50.581Z,20.22
2023-05-06T07:12:17.124Z,20.38
2023-05-06T07:14:43.751Z,20.39
2023-05-06T07:17:10.340Z,20.09
2023-05-06T07:19:37.088Z,20.18
2023-05-06T07:22:03.723Z,20.45
2023-05-06T07:24:30.248Z,20.37
2023-05-06T07:26:57.801Z,20.15
2023-05-06T07:29:24.398Z,20.30
2023-05-06T07:31:51.207Z,20.04
2023-05-06T07:34:17.750Z,20.46
2023-05-06T07:36:45.116Z,20.47
2023-05-06T07:39:11.860Z,20.31
2023-05-06T07:41:38.375Z,20.41
2023-05-06T07:44:05.900Z,20.14
2023-05-06T07:46:32.584Z,20.22
2023-05-06T07:48:59.222Z,20.21
2023-05-06T07:51:26.093Z,20.48
2023-05-06T07:53:52.659Z,20.25
2023-05-06T07:56:19.234Z,20.47
2023-05-06T07:58:45.833Z,20.46
2023-05-06T08:01:12.351Z,20.39
2023-05-06T08:03:39.302Z,20.46
2023-05-06T08:06:06.837Z,20.41
2023-05-06T08:08:33.374Z,20.38
2023-05-06T08:10:59.959Z,20.25
2023-05-06T08:13:26.960Z,20.24
2023-05-06T08:15:53.895Z,20.23
2023-05-06T08:18:23.004Z,20.14
2023-05-06T08:20:50.229Z,20.15
2023-05-06T08:23:16.792Z,20.25
2023-05-06T08:25:43.445Z,20.34
2023-05-06T08:28:10.044Z,20.26
2023-05-06T08:30:36.762Z,20.28
2023-05-06T08:33:03.641Z,20.18
2023-05-06T08:35:30.208Z,20.30
2023-05-06T08:37:56.797Z,20.25
2023-05-06T08:40:23.959Z,20.19
2023-05-06T08:42:50.807Z,20.35
2023-05-06T08:45:17.698Z,20.31
2023-05-06T08:47:44.274Z,20.39
2023-05-06T08:50:13.650Z,20.07
2023-05-06T08:52:40.332Z,20.25
2023-05-06T08:55:07.854Z,20.32
2023-05-06T08:57:34.605Z,20.36
2023-05-06T09:00:01.466Z,20.19
2023-05-06T09:02:28.201Z,20.25
2023-05-06T09:04:55.032Z,20.15
2023-05-06T09:07:21.747Z,20.25
2023-05-06T09:09:48.540Z,20.46
2023-05-06T09:12:15.358Z,20.21
2023-05-06T09:14:42.288Z,20.46
2023-05-06T09:17:26.568Z,20.19
2023-05-06T09:19:54.130Z,20.10
2023-05-06T09:22:27.798Z,20.28
2023-05-06T09:24:57.278Z,20.30
2023-05-06T09:27:28.532Z,20.07
2023-05-06T09:30:05.952Z,20.22
2023-05-06T09:32:32.618Z,20.19
2023-05-06T09:34:59.176Z,20.29
2023-05-06T09:37:28.268Z,20.47
2023-05-06T09:39:55.808Z,20.39
2023-05-06T09:42:26.290Z,20.38
2023-05-06T09:44:53.942Z,20.31
2023-05-06T09:47:33.644Z,20.41
2023-05-06T09:50:01.427Z,20.40
2023-05-06T09:52:28.349Z,20.20
2023-05-06T09:54:55.129Z,20.13
2023-05-06T09:57:22.387Z,20.19
2023-05-06T09:59:49.089Z,20.19
2023-05-06T10:02:15.735Z,20.28
2023-05-06T10:04:42.609Z,20.15
2023-05-06T10:07:11.591Z,20.48
2023-05-06T10:09:38.961Z,20.20
2023-05-06T10:12:08.830Z,20.45
2023-05-06T10:14:36.704Z,20.26
2023-05-06T10:17:08.061Z,20.42
2023-05-06T10:19:34.987Z,20.56
2023-05-06T10:22:08.425Z,20.28
2023-05-06T10:24:41.973Z,20.42
2023-05-06T10:27:08.510Z,20.38
2023-05-06T10:29:35.909Z,20.50
2023-05-06T10:32:03.378Z,20.29
2023-05-06T10:34:32.254Z,20.57
2023-05-06T10:36:58.749Z,20.53
2023-05-06T10:39:25.963Z,20.66
2023-05-06T10:41:52.615Z,20.62
2023-05-06T10:44:20.955Z,20.68
2023-05-06T10:47:05.691Z,20.07
2023-05-06T10:49:32.167Z,20.64
2023-05-06T10:52:13.357Z,20.70
2023-05-06T10:54:50.689Z,20.68
2023-05-06T10:57:17.503Z,20.62
2023-05-06T10:59:47.324Z,20.37
2023-05-06T11:02:14.146Z,20.46
2023-05-06T11:04:40.836Z,20.52
2023-05-06T11:07:14.804Z,20.35
2023-05-06T11:09:57.562Z,20.59
2023-05-06T11:12:46.923Z,20.56
2023-05-06T11:15:35.235Z,20.67
2023-05-06T11:18:02.046Z,20.66
2023-05-06T11:20:28.790Z,20.41
2023-05-06T11:22:55.359Z,20.66
2023-05-06T11:25:41.565Z,20.65
2023-05-06T11:28:11.806Z,20.49
2023-05-06T11:30:43.242Z,20.57
2023-05-06T11:33:21.531Z,20.52
2023-05-06T11:35:48.100Z,20.54
2023-05-06T11:38:14.652Z,20.42
2023-05-06T11:40:41.987Z,20.61
2023-05-06T11:43:14.808Z,20.26
2023-05-06T11:45:48.052Z,20.32
2023-05-06T11:48:15.385Z,20.46
2023-05-06T11:50:47.461Z,20.47
2023-05-06T11:53:16.564Z,20.45
2023-05-06T11:55:43.765Z,20.58
2023-05-06T11:58:26.408Z,20.29
2023-05-06T12:00:57.418Z,20.31
2023-05-06T12:03:24.742Z,20.46
2023-05-06T12:05:51.968Z,20.42
2023-05-06T12:08:27.777Z,20.33
2023-05-06T12:10:55.954Z,20.58
2023-05-06T12:13:22.541Z,20.46
2023-05-06T12:15:49.973Z,20.46
2023-05-06T12:18:16.569Z,20.52
2023-05-06T12:20:43.101Z,20.49
2023-05-06T12:23:11.408Z,20.50
2023-05-06T12:25:38.396Z,20.59
2023-05-06T12:28:23.723Z,20.44
2023-05-06T12:30:50.346Z,20.59
2023-05-06T12:33:16.842Z,20.51
2023-05-06T12:35:43.407Z,20.25
2023-05-06T12:38:16.926Z,20.58
2023-05-06T12:40:45.627Z,20.52
2023-05-06T12:43:12.267Z,20.42
2023-05-06T12:45:39.670Z,20.50
2023-05-06T12:48:07.175Z,20.47
2023-05-06T12:50:44.054Z,20.40
2023-05-06T12:53:15.168Z,20.33
2023-05-06T12:55:42.252Z,20.16
2023-05-06T12:58:18.725Z,20.23
2023-05-06T13:00:45.528Z,20.29
2023-05-06T13:03:13.316Z,20.30
2023-05-06T13:05:39.948Z,20.27
2023-05-06T13:08:06.554Z,20.18
2023-05-06T13:10:33.041Z,20.26
2023-05-06T13:12:59.613Z,20.27
2023-05-06T13:15:27.061Z,20.47
2023-05-06T13:17:53.739Z,20.19
2023-05-06T13:20:20.298Z,20.09
2023-05-06T13:22:54.253Z,20.46
2023-05-06T13:25:21.825Z,20.50
2023-05-06T13:27:48.375Z,20.43
2023-05-06T13:30:15.011Z,20.52
2023-05-06T13:32:41.584Z,20.35
2023-05-06T13:35:09.139Z,20.31
2023-05-06T13:37:35.833Z,20.43
2023-05-06T13:40:02.383Z,20.47
2023-05-06T13:42:28.942Z,20.16
2023-05-06T13:44:55.462Z,20.49
2023-05-06T13:47:22.754Z,20.23
2023-05-06T13:49:49.264Z,20.39
2023-05-06T13:52:15.811Z,20.42
2023-05-06T13:54:42.367Z,20.44
2023-05-06T13:57:08.886Z,20.22
2023-05-06T13:59:35.413Z,20.16
2023-05-06T14:02:04.588Z,20.32
2023-05-06T14:04:32.163Z,20.25
2023-05-06T14:06:59.238Z,20.22
2023-05-06T14:09:25.792Z,20.42
2023-05-06T14:11:52.315Z,20.22
2023-05-06T14:14:18.818Z,20.43
2023-05-06T14:16:45.508Z,20.19
2023-05-06T14:19:12.132Z,20.44
2023-05-06T14:21:38.663Z,20.51
2023-05-06T14:24:07.371Z,20.29
2023-05-06T14:26:34.455Z,20.40
2023-05-06T14:29:01.044Z,20.14
2023-05-06T14:31:29.496Z,20.18
2023-05-06T14:33:56.427Z,20.51
2023-05-06T14:36:22.953Z,20.50
2023-05-06T14:38:49.475Z,20.38
2023-05-06T14:41:16.235Z,20.52
2023-05-06T14:43:42.768Z,20.53
2023-05-06T14:46:09.476Z,20.37
2023-05-06T14:48:35.999Z,20.51
2023-05-06T14:51:02.571Z,20.34
2023-05-06T14:53:29.176Z,20.31
2023-05-06T14:55:56.512Z,20.59
2023-05-06T14:58:23.164Z,20.49
2023-05-06T15:00:49.913Z,20.56
2023-05-06T15:03:16.693Z,20.31
2023-05-06T15:05:43.337Z,20.60
2023-05-06T15:08:10.131Z,20.32
2023-05-06T15:10:36.662Z,20.53
2023-05-06T15:13:03.642Z,20.23
2023-05-06T15:15:32.436Z,20.19
2023-05-06T15:17:59.039Z,20.47
2023-05-06T15:20:26.078Z,20.57
2023-05-06T15:22:52.634Z,20.44
2023-05-06T15:25:33.468Z,20.54
2023-05-06T15:28:01.353Z,20.42
2023-05-06T15:30:27.904Z,20.37
2023-05-06T15:32:54.497Z,20.48
2023-05-06T15:35:21.049Z,20.61
2023-05-06T15:37:47.594Z,20.66
2023-05-06T15:40:14.171Z,20.66
2023-05-06T15:42:40.881Z,20.46
2023-05-06T15:45:07.803Z,20.43
2023-05-06T15:47:34.453Z,20.27
2023-05-06T15:50:01.566Z,20.66
2023-05-06T15:52:28.618Z,20.38
2023-05-06T15:54:59.522Z,20.52
2023-05-06T15:57:26.437Z,20.36
2023-05-06T15:59:53.009Z,20.59
2023-05-06T16:04:49.152Z,20.39
2023-05-06T16:07:16.589Z,20.65
2023-05-06T16:09:43.081Z,20.66
2023-05-06T16:12:10.133Z,20.43
2023-05-06T16:14:36.744Z,20.45
2023-05-06T16:17:03.525Z,20.25
2023-05-06T16:19:32.127Z,20.54
2023-05-06T16:21:58.715Z,20.49
2023-05-06T16:24:25.307Z,20.48
2023-05-06T16:26:51.906Z,20.40
2023-05-06T16:29:20.575Z,20.65
2023-05-06T16:31:47.965Z,20.65
2023-05-06T16:34:14.829Z,20.61
2023-05-06T16:36:41.494Z,20.65
2023-05-06T16:39:08.275Z,20.66
2023-05-06T16:41:34.768Z,20.65
2023-05-06T16:44:01.718Z,20.65
2023-05-06T16:46:28.972Z,20.67
2023-05-06T16:48:55.967Z,20.67
2023-05-06T16:51:22.675Z,20.67
2023-05-06T16:53:49.320Z,20.68
2023-05-06T16:56:16.065Z,20.68
2023-05-06T16:58:42.905Z,20.70
2023-05-06T17:01:09.762Z,20.70
2023-05-06T17:03:40.471Z,20.71
2023-05-06T17:06:07.745Z,20.71
2023-05-06T17:08:36.343Z,20.72
2023-05-06T17:11:05.288Z,20.72
2023-05-06T17:13:31.862Z,20.63
2023-05-06T17:15:58.422Z,20.73
2023-05-06T17:18:24.969Z,20.73
2023-05-06T17:20:56.540Z,20.75
2023-05-06T17:23:23.948Z,20.74
2023-05-06T17:25:50.937Z,20.70
2023-05-06T17:28:18.505Z,20.77
2023-05-06T17:30:45.564Z,20.75
2023-05-06T17:33:12.150Z,20.75
2023-05-06T17:35:38.748Z,20.76
2023-05-06T17:38:05.411Z,20.75
2023-05-06T17:40:31.960Z,20.77
2023-05-06T17:42:58.979Z,20.79
2023-05-06T17:45:26.745Z,20.79
2023-05-06T17:47:53.453Z,20.79
2023-05-06T17:50:20.089Z,20.79
2023-05-06T17:52:50.634Z,20.82
2023-05-06T17:55:17.787Z,20.81
2023-05-06T17:57:44.506Z,20.81
2023-05-06T18:00:11.526Z,20.81
2023-05-06T18:02:38.198Z,20.80
2023-05-06T18:05:05.256Z,20.79
2023-05-06T18:07:31.791Z,20.77
2023-05-06T18:09:58.370Z,20.75
2023-05-06T18:12:24.903Z,20.75
2023-05-06T18:14:51.482Z,20.74
2023-05-06T18:17:18.027Z,20.73
2023-05-06T18:19:44.572Z,20.72
2023-05-06T18:22:11.146Z,20.71
2023-05-06T18:24:38.242Z,20.71
2023-05-06T18:27:04.814Z,20.70
2023-05-06T18:29:33.137Z,20.60
2023-05-06T18:32:00.337Z,20.70
2023-05-06T18:34:26.980Z,20.69
2023-05-06T18:36:54.178Z,20.69
2023-05-06T18:39:22.880Z,20.69
2023-05-06T18:41:49.384Z,20.69
2023-05-06T18:44:15.893Z,20.69
2023-05-06T18:46:42.428Z,20.68
2023-05-06T18:49:09.032Z,20.68
2023-05-06T18:51:36.116Z,20.68
2023-05-06T18:54:02.655Z,20.70
2023-05-06T18:56:29.234Z,20.70
2023-05-06T18:58:55.827Z,20.71
2023-05-06T19:01:22.851Z,20.71
2023-05-06T19:03:49.494Z,20.71
2023-05-06T19:06:16.007Z,20.72
2023-05-06T19:08:42.609Z,20.72
2023-05-06T19:11:15.938Z,20.73
2023-05-06T19:13:43.676Z,20.72
2023-05-06T19:16:10.698Z,20.72
2023-05-06T19:18:37.297Z,20.71
2023-05-06T19:21:04.499Z,20.70
2023-05-06T19:23:32.349Z,20.70
2023-05-06T19:25:58.927Z,20.71
2023-05-06T19:28:25.476Z,20.71
2023-05-06T19:30:51.994Z,20.70
2023-05-06T19:33:18.633Z,20.71
2023-05-06T19:35:45.210Z,20.70
2023-05-06T19:38:11.803Z,20.63
2023-05-06T19:40:38.398Z,20.70
2023-05-06T19:43:04.979Z,20.69
2023-05-06T19:45:32.533Z,20.68
2023-05-06T19:48:00.922Z,20.68
2023-05-06T19:50:27.642Z,20.69
2023-05-06T19:52:54.202Z,20.68
2023-05-06T19:55:21.112Z,20.68
2023-05-06T19:57:47.660Z,20.69
2023-05-06T20:00:18.133Z,20.70
2023-05-06T20:02:45.497Z,20.71
2023-05-06T20:05:12.380Z,20.72
2023-05-06T20:07:39.227Z,20.72
2023-05-06T20:10:06.294Z,20.73
2023-05-06T20:12:33.251Z,20.72
2023-05-06T20:14:59.867Z,20.72
2023-05-06T20:17:26.978Z,20.70
2023-05-06T20:19:57.253Z,20.71
2023-05-06T20:22:24.310Z,20.71
2023-05-06T20:24:51.285Z,20.70
2023-05-06T20:27:17.842Z,20.69
2023-05-06T20:29:44.336Z,20.69
2023-05-06T20:32:10.807Z,20.67
2023-05-06T20:34:37.383Z,20.67
2023-05-06T20:37:04.640Z,20.66
2023-05-06T20:39:31.294Z,20.67
2023-05-06T20:41:57.879Z,20.65
2023-05-06T20:44:25.023Z,20.65
2023-05-06T20:46:51.539Z,20.64
2023-05-06T20:49:18.645Z,20.64
2023-05-06T20:51:45.243Z,20.65
2023-05-06T20:54:11.797Z,20.65
2023-05-06T20:56:38.355Z,20.66
2023-05-06T20:59:05.917Z,20.67
2023-05-06T21:01:32.518Z,20.68
2023-05-06T21:04:01.365Z,20.68
2023-05-06T21:06:28.158Z,20.70
2023-05-06T21:08:54.736Z,20.69
2023-05-06T21:11:21.349Z,20.70
2023-05-06T21:13:49.502Z,20.69
2023-05-06T21:16:16.774Z,20.63
2023-05-06T21:18:43.391Z,20.69
2023-05-06T21:21:10.007Z,20.68
2023-05-06T21:23:36.554Z,20.67
2023-05-06T21:26:03.467Z,20.68
2023-05-06T21:28:30.050Z,20.67
2023-05-06T21:30:56.615Z,20.64
2023-05-06T21:33:23.214Z,20.66
2023-05-06T21:35:49.825Z,20.65
2023-05-06T21:38:16.558Z,20.64
2023-05-06T21:40:43.050Z,20.63
2023-05-06T21:43:09.806Z,20.63
2023-05-06T21:45:36.485Z,20.63
2023-05-06T21:48:03.033Z,20.63
2023-05-06T21:50:29.561Z,20.65
2023-05-06T21:52:56.225Z,20.65
2023-05-06T21:55:22.838Z,20.65
2023-05-06T21:57:49.493Z,20.66
2023-05-06T22:00:17.154Z,20.66
2023-05-06T22:02:44.176Z,20.68
2023-05-06T22:05:11.333Z,20.68
2023-05-06T22:07:38.087Z,20.68
2023-05-06T22:10:05.129Z,20.70
2023-05-06T22:12:31.995Z,20.69
2023-05-06T22:14:58.543Z,20.69
2023-05-06T22:17:25.151Z,20.68
2023-05-06T22:19:51.838Z,20.67
2023-05-06T22:22:18.806Z,20.67
2023-05-06T22:24:45.394Z,20.66
2023-05-06T22:27:11.979Z,20.66
2023-05-06T22:29:38.937Z,20.65
2023-05-06T22:32:06.125Z,20.57
2023-05-06T22:34:32.831Z,20.64
2023-05-06T22:37:00.708Z,20.64
2023-05-06T22:39:27.780Z,20.64
2023-05-06T22:41:54.285Z,20.65
2023-05-06T22:44:21.289Z,20.64
2023-05-06T22:46:47.899Z,20.66
2023-05-06T22:49:15.946Z,20.66
2023-05-06T22:51:42.557Z,20.65
2023-05-06T22:54:09.075Z,20.67
2023-05-06T22:56:35.607Z,20.69
2023-05-06T22:59:02.169Z,20.70
2023-05-06T23:01:32.210Z,20.69
2023-05-06T23:03:59.539Z,20.70
2023-05-06T23:06:27.409Z,20.70
2023-05-06T23:08:53.904Z,20.70
2023-05-06T23:11:20.463Z,20.70
2023-05-06T23:13:47.292Z,20.70
2023-05-06T23:16:14.766Z,20.30
2023-05-06T23:18:41.534Z,20.68
2023-05-06T23:21:08.095Z,20.68
2023-05-06T23:23:34.618Z,20.67
2023-05-06T23:26:01.176Z,20.65
2023-05-06T23:28:28.105Z,20.65
2023-05-06T23:30:54.671Z,20.65
2023-05-06T23:33:21.230Z,20.64
2023-05-06T23:35:47.773Z,20.64
2023-05-06T23:38:14.302Z,20.66
2023-05-06T23:40:40.800Z,20.65
2023-05-06T23:43:09.860Z,20.67
2023-05-06T23:45:36.465Z,20.67
2023-05-06T23:48:03.270Z,20.69
2023-05-06T23:50:29.897Z,20.69
2023-05-06T23:52:56.492Z,20.70
2023-05-06T23:55:23.054Z,20.70
2023-05-06T23:57:49.536Z,20.70
